sensor_id;sensor_type;location;lat;lon;timestamp;P1;durP1;ratioP1;P2;durP2;ratioP2
4434;SDS011;46552;52.150;8.428;2024-02-28T00:00:12;58.03;;;29.63;;
4434;SDS011;46552;52.150;8.428;2024-02-28T00:02:40;61.87;;;28.73;;
4434;SDS011;46552;52.150;8.428;2024-02-28T00:05:09;64.20;;;29.87;;
4434;SDS011;46552;52.150;8.428;2024-02-28T00:07:36;61.63;;;27.27;;
4434;SDS011;46552;52.150;8.428;2024-02-28T00:10:04;60.47;;;30.40;;
4434;SDS011;46552;52.150;8.428;2024-02-28T00:12:31;61.57;;;29.60;;
4434;SDS011;46552;52.150;8.428;2024-02-28T00:14:59;66.30;;;31.20;;
4434;SDS011;46552;52.150;8.428;2024-02-28T00:17:27;63.60;;;28.37;;
4434;SDS011;46552;52.150;8.428;2024-02-28T00:19:54;66.43;;;28.60;;
4434;SDS011;46552;52.150;8.428;2024-02-28T00:22:22;61.53;;;28.70;;
4434;SDS011;46552;52.150;8.428;2024-02-28T00:24:49;64.90;;;28.60;;
4434;SDS011;46552;52.150;8.428;2024-02-28T00:27:16;57.37;;;30.33;;
4434;SDS011;46552;52.150;8.428;2024-02-28T00:29:44;74.80;;;31.40;;
4434;SDS011;46552;52.150;8.428;2024-02-28T00:32:11;61.57;;;28.00;;
4434;SDS011;46552;52.150;8.428;2024-02-28T00:34:40;61.90;;;28.93;;
4434;SDS011;46552;52.150;8.428;2024-02-28T00:37:08;64.07;;;29.13;;
4434;SDS011;46552;52.150;8.428;2024-02-28T00:39:36;59.67;;;28.43;;
4434;SDS011;46552;52.150;8.428;2024-02-28T00:42:04;65.90;;;29.27;;
4434;SDS011;46552;52.150;8.428;2024-02-28T00:44:31;55.40;;;25.77;;
4434;SDS011;46552;52.150;8.428;2024-02-28T00:46:58;59.20;;;28.47;;
4434;SDS011;46552;52.150;8.428;2024-02-28T00:49:26;63.43;;;26.30;;
4434;SDS011;46552;52.150;8.428;2024-02-28T00:51:54;55.73;;;27.00;;
4434;SDS011;46552;52.150;8.428;2024-02-28T00:54:22;57.10;;;26.40;;
4434;SDS011;46552;52.150;8.428;2024-02-28T00:56:52;63.00;;;25.23;;
4434;SDS011;46552;52.150;8.428;2024-02-28T00:59:19;65.60;;;29.57;;
4434;SDS011;46552;52.150;8.428;2024-02-28T01:01:46;60.23;;;29.10;;
4434;SDS011;46552;52.150;8.428;2024-02-28T01:04:16;61.73;;;28.00;;
4434;SDS011;46552;52.150;8.428;2024-02-28T01:06:43;57.73;;;27.57;;
4434;SDS011;46552;52.150;8.428;2024-02-28T01:09:11;64.60;;;28.23;;
4434;SDS011;46552;52.150;8.428;2024-02-28T01:11:38;59.10;;;26.73;;
4434;SDS011;46552;52.150;8.428;2024-02-28T01:14:07;64.57;;;27.53;;
4434;SDS011;46552;52.150;8.428;2024-02-28T01:16:34;66.40;;;28.30;;
4434;SDS011;46552;52.150;8.428;2024-02-28T01:19:01;63.33;;;29.63;;
4434;SDS011;46552;52.150;8.428;2024-02-28T01:21:29;61.77;;;27.20;;
4434;SDS011;46552;52.150;8.428;2024-02-28T01:23:56;61.07;;;26.40;;
4434;SDS011;46552;52.150;8.428;2024-02-28T01:26:23;61.30;;;26.93;;
4434;SDS011;46552;52.150;8.428;2024-02-28T01:28:51;70.33;;;30.60;;
4434;SDS011;46552;52.150;8.428;2024-02-28T01:31:19;60.57;;;27.90;;
4434;SDS011;46552;52.150;8.428;2024-02-28T01:33:46;58.80;;;24.50;;
4434;SDS011;46552;52.150;8.428;2024-02-28T01:36:13;68.60;;;27.97;;
4434;SDS011;46552;52.150;8.428;2024-02-28T01:38:41;65.83;;;28.13;;
4434;SDS011;46552;52.150;8.428;2024-02-28T01:41:08;54.50;;;24.93;;
4434;SDS011;46552;52.150;8.428;2024-02-28T01:43:35;61.47;;;26.77;;
4434;SDS011;46552;52.150;8.428;2024-02-28T01:46:03;62.97;;;28.57;;
4434;SDS011;46552;52.150;8.428;2024-02-28T01:48:39;63.90;;;28.10;;
4434;SDS011;46552;52.150;8.428;2024-02-28T01:51:07;72.03;;;30.00;;
4434;SDS011;46552;52.150;8.428;2024-02-28T01:53:35;62.13;;;28.00;;
4434;SDS011;46552;52.150;8.428;2024-02-28T01:56:03;58.97;;;27.50;;
4434;SDS011;46552;52.150;8.428;2024-02-28T01:58:31;67.60;;;28.70;;
4434;SDS011;46552;52.150;8.428;2024-02-28T02:00:58;75.37;;;29.87;;
4434;SDS011;46552;52.150;8.428;2024-02-28T02:03:27;61.43;;;27.10;;
4434;SDS011;46552;52.150;8.428;2024-02-28T02:05:56;65.93;;;28.60;;
4434;SDS011;46552;52.150;8.428;2024-02-28T02:08:23;67.27;;;28.07;;
4434;SDS011;46552;52.150;8.428;2024-02-28T02:10:50;59.57;;;29.50;;
4434;SDS011;46552;52.150;8.428;2024-02-28T02:13:17;66.57;;;28.47;;
4434;SDS011;46552;52.150;8.428;2024-02-28T02:15:45;69.37;;;30.87;;
4434;SDS011;46552;52.150;8.428;2024-02-28T02:18:12;57.83;;;27.37;;
4434;SDS011;46552;52.150;8.428;2024-02-28T02:20:41;63.00;;;31.17;;
4434;SDS011;46552;52.150;8.428;2024-02-28T02:23:12;74.80;;;31.03;;
4434;SDS011;46552;52.150;8.428;2024-02-28T02:25:43;75.87;;;33.97;;
4434;SDS011;46552;52.150;8.428;2024-02-28T02:28:11;76.07;;;31.87;;
4434;SDS011;46552;52.150;8.428;2024-02-28T02:30:38;64.93;;;29.67;;
4434;SDS011;46552;52.150;8.428;2024-02-28T02:33:06;81.03;;;33.77;;
4434;SDS011;46552;52.150;8.428;2024-02-28T02:35:33;79.47;;;33.43;;
4434;SDS011;46552;52.150;8.428;2024-02-28T02:38:00;82.30;;;32.23;;
4434;SDS011;46552;52.150;8.428;2024-02-28T02:40:28;63.70;;;31.07;;
4434;SDS011;46552;52.150;8.428;2024-02-28T02:42:55;68.87;;;30.23;;
4434;SDS011;46552;52.150;8.428;2024-02-28T02:45:23;63.63;;;27.27;;
4434;SDS011;46552;52.150;8.428;2024-02-28T02:47:50;74.03;;;30.50;;
4434;SDS011;46552;52.150;8.428;2024-02-28T02:50:18;65.30;;;30.60;;
4434;SDS011;46552;52.150;8.428;2024-02-28T02:52:45;77.67;;;32.33;;
4434;SDS011;46552;52.150;8.428;2024-02-28T02:55:12;71.30;;;32.70;;
4434;SDS011;46552;52.150;8.428;2024-02-28T02:57:41;100.27;;;39.70;;
4434;SDS011;46552;52.150;8.428;2024-02-28T03:00:09;133.93;;;37.63;;
4434;SDS011;46552;52.150;8.428;2024-02-28T03:02:37;221.13;;;42.33;;
4434;SDS011;46552;52.150;8.428;2024-02-28T03:05:05;98.30;;;35.97;;
4434;SDS011;46552;52.150;8.428;2024-02-28T03:07:32;85.40;;;33.43;;
4434;SDS011;46552;52.150;8.428;2024-02-28T03:10:00;76.10;;;33.40;;
4434;SDS011;46552;52.150;8.428;2024-02-28T03:12:28;90.67;;;34.57;;
4434;SDS011;46552;52.150;8.428;2024-02-28T03:14:57;76.30;;;33.73;;
4434;SDS011;46552;52.150;8.428;2024-02-28T03:17:24;88.13;;;34.20;;
4434;SDS011;46552;52.150;8.428;2024-02-28T03:19:51;80.63;;;32.43;;
4434;SDS011;46552;52.150;8.428;2024-02-28T03:22:18;73.70;;;32.07;;
4434;SDS011;46552;52.150;8.428;2024-02-28T03:24:45;63.30;;;30.17;;
4434;SDS011;46552;52.150;8.428;2024-02-28T03:27:13;63.67;;;29.77;;
4434;SDS011;46552;52.150;8.428;2024-02-28T03:29:41;61.93;;;27.50;;
4434;SDS011;46552;52.150;8.428;2024-02-28T03:32:09;64.57;;;28.30;;
4434;SDS011;46552;52.150;8.428;2024-02-28T03:34:38;62.30;;;26.67;;
4434;SDS011;46552;52.150;8.428;2024-02-28T03:37:06;61.43;;;28.13;;
4434;SDS011;46552;52.150;8.428;2024-02-28T03:39:34;59.97;;;26.00;;
4434;SDS011;46552;52.150;8.428;2024-02-28T03:42:01;68.97;;;29.73;;
4434;SDS011;46552;52.150;8.428;2024-02-28T03:44:28;70.10;;;30.03;;
4434;SDS011;46552;52.150;8.428;2024-02-28T03:46:56;73.33;;;28.70;;
4434;SDS011;46552;52.150;8.428;2024-02-28T03:49:25;59.60;;;27.17;;
4434;SDS011;46552;52.150;8.428;2024-02-28T03:51:53;52.83;;;25.40;;
4434;SDS011;46552;52.150;8.428;2024-02-28T03:54:20;68.43;;;28.20;;
4434;SDS011;46552;52.150;8.428;2024-02-28T03:56:47;61.87;;;26.93;;
4434;SDS011;46552;52.150;8.428;2024-02-28T03:59:15;60.93;;;26.33;;
4434;SDS011;46552;52.150;8.428;2024-02-28T04:01:42;61.10;;;26.23;;
4434;SDS011;46552;52.150;8.428;2024-02-28T04:04:09;68.30;;;26.90;;
4434;SDS011;46552;52.150;8.428;2024-02-28T04:06:38;62.63;;;26.40;;
4434;SDS011;46552;52.150;8.428;2024-02-28T04:09:05;62.03;;;28.10;;
4434;SDS011;46552;52.150;8.428;2024-02-28T04:11:32;72.30;;;28.23;;
4434;SDS011;46552;52.150;8.428;2024-02-28T04:14:00;55.80;;;25.43;;
4434;SDS011;46552;52.150;8.428;2024-02-28T04:16:28;54.67;;;24.87;;
4434;SDS011;46552;52.150;8.428;2024-02-28T04:18:55;60.83;;;28.50;;
4434;SDS011;46552;52.150;8.428;2024-02-28T04:21:23;71.40;;;26.40;;
4434;SDS011;46552;52.150;8.428;2024-02-28T04:23:53;77.93;;;27.83;;
4434;SDS011;46552;52.150;8.428;2024-02-28T04:26:20;64.00;;;27.43;;
4434;SDS011;46552;52.150;8.428;2024-02-28T04:28:47;54.33;;;25.90;;
4434;SDS011;46552;52.150;8.428;2024-02-28T04:31:14;45.83;;;23.80;;
4434;SDS011;46552;52.150;8.428;2024-02-28T04:33:41;50.97;;;27.03;;
4434;SDS011;46552;52.150;8.428;2024-02-28T04:36:08;49.60;;;23.67;;
4434;SDS011;46552;52.150;8.428;2024-02-28T04:38:35;49.40;;;24.43;;
4434;SDS011;46552;52.150;8.428;2024-02-28T04:41:04;50.80;;;24.93;;
4434;SDS011;46552;52.150;8.428;2024-02-28T04:43:32;52.17;;;25.83;;
4434;SDS011;46552;52.150;8.428;2024-02-28T04:45:59;57.17;;;25.57;;
4434;SDS011;46552;52.150;8.428;2024-02-28T04:48:28;53.33;;;25.60;;
4434;SDS011;46552;52.150;8.428;2024-02-28T04:50:56;63.00;;;25.37;;
4434;SDS011;46552;52.150;8.428;2024-02-28T04:53:23;59.27;;;24.60;;
4434;SDS011;46552;52.150;8.428;2024-02-28T04:55:50;71.33;;;29.47;;
4434;SDS011;46552;52.150;8.428;2024-02-28T04:58:19;78.80;;;29.03;;
4434;SDS011;46552;52.150;8.428;2024-02-28T05:00:46;74.83;;;27.80;;
4434;SDS011;46552;52.150;8.428;2024-02-28T05:03:13;78.27;;;29.83;;
4434;SDS011;46552;52.150;8.428;2024-02-28T05:05:41;73.57;;;30.47;;
4434;SDS011;46552;52.150;8.428;2024-02-28T05:08:09;76.40;;;31.87;;
4434;SDS011;46552;52.150;8.428;2024-02-28T05:10:37;78.43;;;30.47;;
4434;SDS011;46552;52.150;8.428;2024-02-28T05:13:05;83.30;;;30.97;;
4434;SDS011;46552;52.150;8.428;2024-02-28T05:15:33;87.87;;;34.20;;
4434;SDS011;46552;52.150;8.428;2024-02-28T05:18:01;87.70;;;30.30;;
4434;SDS011;46552;52.150;8.428;2024-02-28T05:20:28;74.63;;;32.80;;
4434;SDS011;46552;52.150;8.428;2024-02-28T05:22:57;76.97;;;32.23;;
4434;SDS011;46552;52.150;8.428;2024-02-28T05:25:24;86.13;;;34.77;;
4434;SDS011;46552;52.150;8.428;2024-02-28T05:27:51;77.97;;;34.23;;
4434;SDS011;46552;52.150;8.428;2024-02-28T05:30:18;63.03;;;30.00;;
4434;SDS011;46552;52.150;8.428;2024-02-28T05:32:47;61.57;;;26.07;;
4434;SDS011;46552;52.150;8.428;2024-02-28T05:35:15;57.30;;;26.60;;
4434;SDS011;46552;52.150;8.428;2024-02-28T05:37:43;58.00;;;27.83;;
4434;SDS011;46552;52.150;8.428;2024-02-28T05:40:11;57.13;;;25.83;;
4434;SDS011;46552;52.150;8.428;2024-02-28T05:42:40;68.80;;;28.03;;
4434;SDS011;46552;52.150;8.428;2024-02-28T05:45:08;59.17;;;27.70;;
4434;SDS011;46552;52.150;8.428;2024-02-28T05:47:36;81.43;;;30.37;;
4434;SDS011;46552;52.150;8.428;2024-02-28T05:50:06;75.40;;;28.97;;
4434;SDS011;46552;52.150;8.428;2024-02-28T05:52:35;93.77;;;32.20;;
4434;SDS011;46552;52.150;8.428;2024-02-28T05:55:02;104.80;;;34.40;;
4434;SDS011;46552;52.150;8.428;2024-02-28T05:57:29;93.07;;;32.27;;
4434;SDS011;46552;52.150;8.428;2024-02-28T05:59:57;109.60;;;34.50;;
4434;SDS011;46552;52.150;8.428;2024-02-28T06:02:24;130.00;;;35.30;;
4434;SDS011;46552;52.150;8.428;2024-02-28T06:04:52;115.27;;;32.67;;
4434;SDS011;46552;52.150;8.428;2024-02-28T06:07:22;141.40;;;36.07;;
4434;SDS011;46552;52.150;8.428;2024-02-28T06:09:49;128.87;;;37.23;;
4434;SDS011;46552;52.150;8.428;2024-02-28T06:12:18;125.23;;;39.83;;
4434;SDS011;46552;52.150;8.428;2024-02-28T06:14:46;123.10;;;36.40;;
4434;SDS011;46552;52.150;8.428;2024-02-28T06:17:14;128.20;;;35.33;;
4434;SDS011;46552;52.150;8.428;2024-02-28T06:19:42;137.70;;;36.57;;
4434;SDS011;46552;52.150;8.428;2024-02-28T06:22:09;130.33;;;35.43;;
4434;SDS011;46552;52.150;8.428;2024-02-28T06:24:37;145.40;;;36.07;;
4434;SDS011;46552;52.150;8.428;2024-02-28T06:27:04;124.20;;;35.70;;
4434;SDS011;46552;52.150;8.428;2024-02-28T06:29:37;144.27;;;35.83;;
4434;SDS011;46552;52.150;8.428;2024-02-28T06:32:05;131.13;;;35.50;;
4434;SDS011;46552;52.150;8.428;2024-02-28T06:34:32;110.13;;;33.37;;
4434;SDS011;46552;52.150;8.428;2024-02-28T06:36:59;122.67;;;34.87;;
4434;SDS011;46552;52.150;8.428;2024-02-28T06:39:29;102.50;;;33.07;;
4434;SDS011;46552;52.150;8.428;2024-02-28T06:41:58;110.07;;;35.73;;
4434;SDS011;46552;52.150;8.428;2024-02-28T06:44:26;124.80;;;37.87;;
4434;SDS011;46552;52.150;8.428;2024-02-28T06:46:53;111.43;;;35.77;;
4434;SDS011;46552;52.150;8.428;2024-02-28T06:49:25;106.50;;;36.30;;
4434;SDS011;46552;52.150;8.428;2024-02-28T06:51:53;115.30;;;35.70;;
4434;SDS011;46552;52.150;8.428;2024-02-28T06:54:23;102.63;;;34.20;;
4434;SDS011;46552;52.150;8.428;2024-02-28T06:56:50;123.60;;;33.70;;
4434;SDS011;46552;52.150;8.428;2024-02-28T06:59:19;119.33;;;36.63;;
4434;SDS011;46552;52.150;8.428;2024-02-28T07:01:46;116.27;;;37.40;;
4434;SDS011;46552;52.150;8.428;2024-02-28T07:04:13;100.20;;;35.80;;
4434;SDS011;46552;52.150;8.428;2024-02-28T07:06:40;151.50;;;40.37;;
4434;SDS011;46552;52.150;8.428;2024-02-28T07:09:08;97.37;;;38.20;;
4434;SDS011;46552;52.150;8.428;2024-02-28T07:11:35;115.33;;;38.00;;
4434;SDS011;46552;52.150;8.428;2024-02-28T07:14:03;126.73;;;37.43;;
4434;SDS011;46552;52.150;8.428;2024-02-28T07:16:32;109.33;;;35.83;;
4434;SDS011;46552;52.150;8.428;2024-02-28T07:19:00;105.63;;;34.87;;
4434;SDS011;46552;52.150;8.428;2024-02-28T07:21:28;85.57;;;31.67;;
4434;SDS011;46552;52.150;8.428;2024-02-28T07:23:57;104.47;;;34.40;;
4434;SDS011;46552;52.150;8.428;2024-02-28T07:26:24;109.20;;;37.40;;
4434;SDS011;46552;52.150;8.428;2024-02-28T07:28:51;95.03;;;34.30;;
4434;SDS011;46552;52.150;8.428;2024-02-28T07:31:19;105.50;;;33.27;;
4434;SDS011;46552;52.150;8.428;2024-02-28T07:33:47;125.07;;;37.60;;
4434;SDS011;46552;52.150;8.428;2024-02-28T07:36:15;99.63;;;32.37;;
4434;SDS011;46552;52.150;8.428;2024-02-28T07:38:42;93.27;;;32.63;;
4434;SDS011;46552;52.150;8.428;2024-02-28T07:41:10;109.30;;;35.93;;
4434;SDS011;46552;52.150;8.428;2024-02-28T07:43:37;110.37;;;33.20;;
4434;SDS011;46552;52.150;8.428;2024-02-28T07:46:08;83.53;;;33.90;;
4434;SDS011;46552;52.150;8.428;2024-02-28T07:48:37;84.90;;;33.67;;
4434;SDS011;46552;52.150;8.428;2024-02-28T07:51:06;94.87;;;30.77;;
4434;SDS011;46552;52.150;8.428;2024-02-28T07:53:33;108.37;;;36.57;;
4434;SDS011;46552;52.150;8.428;2024-02-28T07:56:01;106.70;;;34.97;;
4434;SDS011;46552;52.150;8.428;2024-02-28T07:58:29;104.17;;;34.07;;
4434;SDS011;46552;52.150;8.428;2024-02-28T08:00:58;92.03;;;33.20;;
4434;SDS011;46552;52.150;8.428;2024-02-28T08:03:25;95.50;;;33.60;;
4434;SDS011;46552;52.150;8.428;2024-02-28T08:05:53;81.77;;;32.60;;
4434;SDS011;46552;52.150;8.428;2024-02-28T08:08:22;101.53;;;32.70;;
4434;SDS011;46552;52.150;8.428;2024-02-28T08:10:50;84.60;;;34.37;;
4434;SDS011;46552;52.150;8.428;2024-02-28T08:13:18;89.40;;;32.67;;
4434;SDS011;46552;52.150;8.428;2024-02-28T08:15:46;90.70;;;32.67;;
4434;SDS011;46552;52.150;8.428;2024-02-28T08:18:13;92.17;;;34.07;;
4434;SDS011;46552;52.150;8.428;2024-02-28T08:20:40;94.53;;;34.00;;
4434;SDS011;46552;52.150;8.428;2024-02-28T08:23:08;95.37;;;35.20;;
4434;SDS011;46552;52.150;8.428;2024-02-28T08:25:36;91.87;;;32.43;;
4434;SDS011;46552;52.150;8.428;2024-02-28T08:28:04;95.63;;;31.70;;
4434;SDS011;46552;52.150;8.428;2024-02-28T08:30:31;101.27;;;32.63;;
4434;SDS011;46552;52.150;8.428;2024-02-28T08:32:59;80.03;;;31.70;;
4434;SDS011;46552;52.150;8.428;2024-02-28T08:35:26;95.17;;;34.33;;
4434;SDS011;46552;52.150;8.428;2024-02-28T08:37:55;109.20;;;34.60;;
4434;SDS011;46552;52.150;8.428;2024-02-28T08:40:22;98.37;;;31.63;;
4434;SDS011;46552;52.150;8.428;2024-02-28T08:42:51;111.83;;;34.97;;
4434;SDS011;46552;52.150;8.428;2024-02-28T08:45:19;107.10;;;35.53;;
4434;SDS011;46552;52.150;8.428;2024-02-28T08:47:47;125.33;;;40.17;;
4434;SDS011;46552;52.150;8.428;2024-02-28T08:50:14;113.37;;;38.40;;
4434;SDS011;46552;52.150;8.428;2024-02-28T08:52:41;116.20;;;38.60;;
4434;SDS011;46552;52.150;8.428;2024-02-28T08:55:08;113.00;;;35.07;;
4434;SDS011;46552;52.150;8.428;2024-02-28T08:57:35;121.90;;;38.53;;
4434;SDS011;46552;52.150;8.428;2024-02-28T09:00:04;139.20;;;37.73;;
4434;SDS011;46552;52.150;8.428;2024-02-28T09:02:34;121.03;;;39.30;;
4434;SDS011;46552;52.150;8.428;2024-02-28T09:05:02;138.87;;;39.60;;
4434;SDS011;46552;52.150;8.428;2024-02-28T09:07:29;131.33;;;38.13;;
4434;SDS011;46552;52.150;8.428;2024-02-28T09:10:00;120.77;;;38.27;;
4434;SDS011;46552;52.150;8.428;2024-02-28T09:12:29;126.97;;;38.23;;
4434;SDS011;46552;52.150;8.428;2024-02-28T09:14:57;108.83;;;35.80;;
4434;SDS011;46552;52.150;8.428;2024-02-28T09:17:26;127.40;;;37.20;;
4434;SDS011;46552;52.150;8.428;2024-02-28T09:19:54;116.87;;;34.77;;
4434;SDS011;46552;52.150;8.428;2024-02-28T09:22:22;101.37;;;34.77;;
4434;SDS011;46552;52.150;8.428;2024-02-28T09:24:50;112.33;;;36.50;;
4434;SDS011;46552;52.150;8.428;2024-02-28T09:27:17;109.77;;;35.27;;
4434;SDS011;46552;52.150;8.428;2024-02-28T09:29:45;120.60;;;36.40;;
4434;SDS011;46552;52.150;8.428;2024-02-28T09:32:12;106.70;;;35.70;;
4434;SDS011;46552;52.150;8.428;2024-02-28T09:34:41;112.50;;;36.40;;
4434;SDS011;46552;52.150;8.428;2024-02-28T09:37:08;123.23;;;35.77;;
4434;SDS011;46552;52.150;8.428;2024-02-28T09:39:37;117.57;;;38.50;;
4434;SDS011;46552;52.150;8.428;2024-02-28T09:42:05;97.67;;;33.27;;
4434;SDS011;46552;52.150;8.428;2024-02-28T09:44:33;107.57;;;36.10;;
4434;SDS011;46552;52.150;8.428;2024-02-28T09:47:02;106.73;;;36.70;;
4434;SDS011;46552;52.150;8.428;2024-02-28T09:49:31;104.83;;;35.80;;
4434;SDS011;46552;52.150;8.428;2024-02-28T09:51:59;106.03;;;35.87;;
4434;SDS011;46552;52.150;8.428;2024-02-28T09:54:29;100.07;;;36.40;;
4434;SDS011;46552;52.150;8.428;2024-02-28T09:56:56;100.40;;;32.50;;
4434;SDS011;46552;52.150;8.428;2024-02-28T09:59:24;110.63;;;33.50;;
4434;SDS011;46552;52.150;8.428;2024-02-28T10:01:53;99.83;;;33.63;;
4434;SDS011;46552;52.150;8.428;2024-02-28T10:04:22;113.30;;;36.63;;
4434;SDS011;46552;52.150;8.428;2024-02-28T10:06:51;109.97;;;36.30;;
4434;SDS011;46552;52.150;8.428;2024-02-28T10:09:20;100.90;;;36.67;;
4434;SDS011;46552;52.150;8.428;2024-02-28T10:11:47;121.40;;;37.73;;
4434;SDS011;46552;52.150;8.428;2024-02-28T10:14:17;115.27;;;36.13;;
4434;SDS011;46552;52.150;8.428;2024-02-28T10:16:45;101.57;;;37.83;;
4434;SDS011;46552;52.150;8.428;2024-02-28T10:19:12;105.67;;;32.60;;
4434;SDS011;46552;52.150;8.428;2024-02-28T10:21:40;122.67;;;37.77;;
4434;SDS011;46552;52.150;8.428;2024-02-28T10:24:08;123.87;;;37.70;;
4434;SDS011;46552;52.150;8.428;2024-02-28T10:26:45;121.43;;;39.80;;
4434;SDS011;46552;52.150;8.428;2024-02-28T10:29:20;116.60;;;34.70;;
4434;SDS011;46552;52.150;8.428;2024-02-28T10:31:47;116.97;;;37.13;;
4434;SDS011;46552;52.150;8.428;2024-02-28T10:34:16;112.27;;;36.80;;
4434;SDS011;46552;52.150;8.428;2024-02-28T10:36:43;112.93;;;38.60;;
4434;SDS011;46552;52.150;8.428;2024-02-28T10:39:12;107.47;;;35.50;;
4434;SDS011;46552;52.150;8.428;2024-02-28T10:41:40;94.70;;;34.07;;
4434;SDS011;46552;52.150;8.428;2024-02-28T10:44:08;127.10;;;37.47;;
4434;SDS011;46552;52.150;8.428;2024-02-28T10:46:37;107.73;;;36.13;;
4434;SDS011;46552;52.150;8.428;2024-02-28T10:49:04;110.17;;;37.23;;
4434;SDS011;46552;52.150;8.428;2024-02-28T10:51:34;114.53;;;38.93;;
4434;SDS011;46552;52.150;8.428;2024-02-28T10:54:06;130.67;;;41.57;;
4434;SDS011;46552;52.150;8.428;2024-02-28T10:56:36;109.80;;;33.40;;
4434;SDS011;46552;52.150;8.428;2024-02-28T10:59:05;97.87;;;33.97;;
4434;SDS011;46552;52.150;8.428;2024-02-28T11:01:35;125.07;;;38.17;;
4434;SDS011;46552;52.150;8.428;2024-02-28T11:04:03;126.63;;;39.57;;
4434;SDS011;46552;52.150;8.428;2024-02-28T11:06:31;117.87;;;37.20;;
4434;SDS011;46552;52.150;8.428;2024-02-28T11:08:59;105.27;;;36.10;;
4434;SDS011;46552;52.150;8.428;2024-02-28T11:11:31;121.07;;;35.33;;
4434;SDS011;46552;52.150;8.428;2024-02-28T11:13:58;110.00;;;35.07;;
4434;SDS011;46552;52.150;8.428;2024-02-28T11:16:27;117.27;;;37.67;;
4434;SDS011;46552;52.150;8.428;2024-02-28T11:18:56;118.57;;;36.03;;
4434;SDS011;46552;52.150;8.428;2024-02-28T11:21:24;104.53;;;36.27;;
4434;SDS011;46552;52.150;8.428;2024-02-28T11:23:52;106.90;;;36.37;;
4434;SDS011;46552;52.150;8.428;2024-02-28T11:26:23;112.83;;;37.30;;
4434;SDS011;46552;52.150;8.428;2024-02-28T11:28:52;137.67;;;37.30;;
4434;SDS011;46552;52.150;8.428;2024-02-28T11:31:20;112.53;;;36.97;;
4434;SDS011;46552;52.150;8.428;2024-02-28T11:33:47;124.77;;;35.90;;
4434;SDS011;46552;52.150;8.428;2024-02-28T11:36:16;118.90;;;37.07;;
4434;SDS011;46552;52.150;8.428;2024-02-28T11:38:44;140.80;;;38.37;;
4434;SDS011;46552;52.150;8.428;2024-02-28T11:41:12;128.60;;;37.20;;
4434;SDS011;46552;52.150;8.428;2024-02-28T11:43:39;135.90;;;39.57;;
4434;SDS011;46552;52.150;8.428;2024-02-28T11:46:08;146.43;;;43.87;;
4434;SDS011;46552;52.150;8.428;2024-02-28T11:48:36;121.77;;;38.80;;
4434;SDS011;46552;52.150;8.428;2024-02-28T11:51:03;121.40;;;40.53;;
4434;SDS011;46552;52.150;8.428;2024-02-28T11:53:34;127.50;;;37.70;;
4434;SDS011;46552;52.150;8.428;2024-02-28T11:56:01;118.03;;;38.87;;
4434;SDS011;46552;52.150;8.428;2024-02-28T11:58:29;128.00;;;42.17;;
4434;SDS011;46552;52.150;8.428;2024-02-28T12:00:57;125.73;;;40.87;;
4434;SDS011;46552;52.150;8.428;2024-02-28T12:03:25;137.13;;;41.93;;
4434;SDS011;46552;52.150;8.428;2024-02-28T12:05:55;135.63;;;47.90;;
4434;SDS011;46552;52.150;8.428;2024-02-28T12:08:23;152.37;;;46.53;;
4434;SDS011;46552;52.150;8.428;2024-02-28T12:10:53;137.40;;;44.70;;
4434;SDS011;46552;52.150;8.428;2024-02-28T12:13:20;142.00;;;43.37;;
4434;SDS011;46552;52.150;8.428;2024-02-28T12:15:49;126.13;;;40.83;;
4434;SDS011;46552;52.150;8.428;2024-02-28T12:18:17;137.93;;;44.43;;
4434;SDS011;46552;52.150;8.428;2024-02-28T12:20:46;150.07;;;44.60;;
4434;SDS011;46552;52.150;8.428;2024-02-28T12:23:15;136.17;;;43.90;;
4434;SDS011;46552;52.150;8.428;2024-02-28T12:25:43;141.63;;;45.80;;
4434;SDS011;46552;52.150;8.428;2024-02-28T12:28:12;115.73;;;38.87;;
4434;SDS011;46552;52.150;8.428;2024-02-28T12:30:41;128.43;;;43.60;;
4434;SDS011;46552;52.150;8.428;2024-02-28T12:33:09;138.80;;;45.47;;
4434;SDS011;46552;52.150;8.428;2024-02-28T12:35:37;121.57;;;42.27;;
4434;SDS011;46552;52.150;8.428;2024-02-28T12:38:04;136.37;;;43.70;;
4434;SDS011;46552;52.150;8.428;2024-02-28T12:40:31;127.00;;;44.93;;
4434;SDS011;46552;52.150;8.428;2024-02-28T12:42:58;146.00;;;46.10;;
4434;SDS011;46552;52.150;8.428;2024-02-28T12:45:27;132.13;;;45.00;;
4434;SDS011;46552;52.150;8.428;2024-02-28T12:47:54;122.70;;;41.70;;
4434;SDS011;46552;52.150;8.428;2024-02-28T12:50:22;113.60;;;41.77;;
4434;SDS011;46552;52.150;8.428;2024-02-28T12:52:49;143.37;;;43.87;;
4434;SDS011;46552;52.150;8.428;2024-02-28T12:55:18;130.40;;;40.73;;
4434;SDS011;46552;52.150;8.428;2024-02-28T12:57:46;147.47;;;42.23;;
4434;SDS011;46552;52.150;8.428;2024-02-28T13:00:14;121.90;;;42.33;;
4434;SDS011;46552;52.150;8.428;2024-02-28T13:02:43;110.80;;;40.30;;
4434;SDS011;46552;52.150;8.428;2024-02-28T13:05:11;112.43;;;40.97;;
4434;SDS011;46552;52.150;8.428;2024-02-28T13:07:39;99.90;;;39.80;;
4434;SDS011;46552;52.150;8.428;2024-02-28T13:10:08;121.87;;;38.93;;
4434;SDS011;46552;52.150;8.428;2024-02-28T13:12:37;116.63;;;40.93;;
4434;SDS011;46552;52.150;8.428;2024-02-28T13:15:05;116.90;;;41.63;;
4434;SDS011;46552;52.150;8.428;2024-02-28T13:17:33;109.67;;;39.33;;
4434;SDS011;46552;52.150;8.428;2024-02-28T13:20:01;114.83;;;40.17;;
4434;SDS011;46552;52.150;8.428;2024-02-28T13:22:29;107.63;;;37.63;;
4434;SDS011;46552;52.150;8.428;2024-02-28T13:24:56;99.00;;;38.37;;
4434;SDS011;46552;52.150;8.428;2024-02-28T13:27:24;102.90;;;37.90;;
4434;SDS011;46552;52.150;8.428;2024-02-28T13:29:51;117.90;;;40.10;;
4434;SDS011;46552;52.150;8.428;2024-02-28T13:32:18;111.60;;;39.57;;
4434;SDS011;46552;52.150;8.428;2024-02-28T13:34:45;108.93;;;40.33;;
4434;SDS011;46552;52.150;8.428;2024-02-28T13:37:14;111.23;;;40.50;;
4434;SDS011;46552;52.150;8.428;2024-02-28T13:39:41;109.13;;;40.13;;
4434;SDS011;46552;52.150;8.428;2024-02-28T13:42:08;120.90;;;41.57;;
4434;SDS011;46552;52.150;8.428;2024-02-28T13:44:35;112.23;;;42.80;;
4434;SDS011;46552;52.150;8.428;2024-02-28T13:47:03;111.37;;;40.07;;
4434;SDS011;46552;52.150;8.428;2024-02-28T13:49:31;127.57;;;44.33;;
4434;SDS011;46552;52.150;8.428;2024-02-28T13:51:58;118.83;;;42.17;;
4434;SDS011;46552;52.150;8.428;2024-02-28T13:54:26;110.60;;;45.27;;
4434;SDS011;46552;52.150;8.428;2024-02-28T13:56:53;119.20;;;41.13;;
4434;SDS011;46552;52.150;8.428;2024-02-28T13:59:20;111.70;;;41.17;;
4434;SDS011;46552;52.150;8.428;2024-02-28T14:01:48;121.60;;;44.43;;
4434;SDS011;46552;52.150;8.428;2024-02-28T14:04:15;126.17;;;46.87;;
4434;SDS011;46552;52.150;8.428;2024-02-28T14:06:42;113.77;;;44.13;;
4434;SDS011;46552;52.150;8.428;2024-02-28T14:09:11;110.33;;;39.77;;
4434;SDS011;46552;52.150;8.428;2024-02-28T14:11:40;116.63;;;42.77;;
4434;SDS011;46552;52.150;8.428;2024-02-28T14:14:07;109.23;;;43.33;;
4434;SDS011;46552;52.150;8.428;2024-02-28T14:16:35;135.00;;;45.00;;
4434;SDS011;46552;52.150;8.428;2024-02-28T14:19:02;119.97;;;43.13;;
4434;SDS011;46552;52.150;8.428;2024-02-28T14:21:29;117.63;;;45.23;;
4434;SDS011;46552;52.150;8.428;2024-02-28T14:23:56;112.37;;;42.10;;
4434;SDS011;46552;52.150;8.428;2024-02-28T14:26:23;106.23;;;40.67;;
4434;SDS011;46552;52.150;8.428;2024-02-28T14:28:52;121.50;;;47.10;;
4434;SDS011;46552;52.150;8.428;2024-02-28T14:31:20;121.10;;;42.97;;